sensor_id;sensor_type;location;lat;lon;timestamp;temperature;humidity
546;DHT22;259;53.304;9.816;2023-05-19T00:00:55;17.40;66.10
546;DHT22;259;53.304;9.816;2023-05-19T00:03:22;17.30;66.10
546;DHT22;259;53.304;9.816;2023-05-19T00:05:51;17.40;66.20
546;DHT22;259;53.304;9.816;2023-05-19T00:08:18;17.30;66.20
546;DHT22;259;53.304;9.816;2023-05-19T00:10:45;17.30;66.30
546;DHT22;259;53.304;9.816;2023-05-19T00:13:11;17.30;66.10
546;DHT22;259;53.304;9.816;2023-05-19T00:15:37;17.30;66.20
546;DHT22;259;53.304;9.816;2023-05-19T00:18:04;17.30;66.20
546;DHT22;259;53.304;9.816;2023-05-19T00:20:30;17.20;66.10
546;DHT22;259;53.304;9.816;2023-05-19T00:22:56;17.20;66.20
546;DHT22;259;53.304;9.816;2023-05-19T00:25:21;17.20;66.10
546;DHT22;259;53.304;9.816;2023-05-19T00:27:47;17.20;66.20
546;DHT22;259;53.304;9.816;2023-05-19T00:30:13;17.20;66.00
546;DHT22;259;53.304;9.816;2023-05-19T00:32:39;17.20;66.10
546;DHT22;259;53.304;9.816;2023-05-19T00:35:05;17.20;66.10
546;DHT22;259;53.304;9.816;2023-05-19T00:37:31;17.10;65.90
546;DHT22;259;53.304;9.816;2023-05-19T00:39:56;17.10;66.00
546;DHT22;259;53.304;9.816;2023-05-19T00:42:24;17.10;66.00
546;DHT22;259;53.304;9.816;2023-05-19T00:44:50;17.10;66.10
546;DHT22;259;53.304;9.816;2023-05-19T00:47:16;17.10;66.10
546;DHT22;259;53.304;9.816;2023-05-19T00:49:42;17.00;65.80
546;DHT22;259;53.304;9.816;2023-05-19T00:52:07;17.00;66.00
546;DHT22;259;53.304;9.816;2023-05-19T00:54:33;17.00;65.80
546;DHT22;259;53.304;9.816;2023-05-19T00:57:00;17.00;66.00
546;DHT22;259;53.304;9.816;2023-05-19T00:59:26;17.00;66.00
546;DHT22;259;53.304;9.816;2023-05-19T01:01:52;17.00;66.20
546;DHT22;259;53.304;9.816;2023-05-19T01:04:19;16.90;65.90
546;DHT22;259;53.304;9.816;2023-05-19T01:06:47;16.90;66.10
546;DHT22;259;53.304;9.816;2023-05-19T01:09:14;16.90;65.90
546;DHT22;259;53.304;9.816;2023-05-19T01:11:40;16.90;65.80
546;DHT22;259;53.304;9.816;2023-05-19T01:14:06;16.90;66.00
546;DHT22;259;53.304;9.816;2023-05-19T01:16:47;16.90;66.10
546;DHT22;259;53.304;9.816;2023-05-19T01:19:42;16.80;66.10
546;DHT22;259;53.304;9.816;2023-05-19T01:31:26;16.80;66.30
546;DHT22;259;53.304;9.816;2023-05-19T01:33:53;16.70;66.30
546;DHT22;259;53.304;9.816;2023-05-19T01:36:20;16.70;66.10
546;DHT22;259;53.304;9.816;2023-05-19T01:38:50;16.70;66.30
546;DHT22;259;53.304;9.816;2023-05-19T01:41:19;16.70;66.10
546;DHT22;259;53.304;9.816;2023-05-19T01:43:47;16.70;66.10
546;DHT22;259;53.304;9.816;2023-05-19T01:46:13;16.70;66.10
546;DHT22;259;53.304;9.816;2023-05-19T01:48:42;16.70;66.10
546;DHT22;259;53.304;9.816;2023-05-19T01:51:08;16.60;65.90
546;DHT22;259;53.304;9.816;2023-05-19T01:53:33;16.60;66.00
546;DHT22;259;53.304;9.816;2023-05-19T01:55:59;16.60;65.90
546;DHT22;259;53.304;9.816;2023-05-19T02:01:42;16.60;66.00
546;DHT22;259;53.304;9.816;2023-05-19T02:05:04;16.60;65.90
546;DHT22;259;53.304;9.816;2023-05-19T02:07:36;16.50;65.80
546;DHT22;259;53.304;9.816;2023-05-19T02:10:13;16.50;66.00
546;DHT22;259;53.304;9.816;2023-05-19T02:12:50;16.50;65.90
546;DHT22;259;53.304;9.816;2023-05-19T02:15:24;16.50;65.80
546;DHT22;259;53.304;9.816;2023-05-19T02:17:52;16.50;66.00
546;DHT22;259;53.304;9.816;2023-05-19T02:20:20;16.40;65.80
546;DHT22;259;53.304;9.816;2023-05-19T02:22:49;16.40;65.90
546;DHT22;259;53.304;9.816;2023-05-19T02:25:14;16.40;65.80
546;DHT22;259;53.304;9.816;2023-05-19T02:27:40;16.40;65.80
546;DHT22;259;53.304;9.816;2023-05-19T02:30:07;16.40;65.80
546;DHT22;259;53.304;9.816;2023-05-19T02:32:34;16.40;65.80
546;DHT22;259;53.304;9.816;2023-05-19T02:35:01;16.40;65.80
546;DHT22;259;53.304;9.816;2023-05-19T02:37:27;16.40;65.80
546;DHT22;259;53.304;9.816;2023-05-19T02:39:53;16.30;65.80
546;DHT22;259;53.304;9.816;2023-05-19T02:42:19;16.30;65.80
546;DHT22;259;53.304;9.816;2023-05-19T02:44:45;16.30;65.90
546;DHT22;259;53.304;9.816;2023-05-19T02:47:12;16.30;65.90
546;DHT22;259;53.304;9.816;2023-05-19T02:49:38;16.30;65.90
546;DHT22;259;53.304;9.816;2023-05-19T02:52:05;16.20;65.80
546;DHT22;259;53.304;9.816;2023-05-19T02:54:32;16.20;65.80
546;DHT22;259;53.304;9.816;2023-05-19T02:56:59;16.20;65.70
546;DHT22;259;53.304;9.816;2023-05-19T02:59:25;16.20;65.80
546;DHT22;259;53.304;9.816;2023-05-19T03:01:56;16.20;65.90
546;DHT22;259;53.304;9.816;2023-05-19T03:04:24;16.20;65.80
546;DHT22;259;53.304;9.816;2023-05-19T03:06:49;16.10;65.60
546;DHT22;259;53.304;9.816;2023-05-19T03:09:15;16.10;65.60
546;DHT22;259;53.304;9.816;2023-05-19T03:11:41;16.10;65.60
546;DHT22;259;53.304;9.816;2023-05-19T03:14:06;16.10;65.70
546;DHT22;259;53.304;9.816;2023-05-19T03:16:36;16.10;65.70
546;DHT22;259;53.304;9.816;2023-05-19T03:19:01;16.10;65.90
546;DHT22;259;53.304;9.816;2023-05-19T03:21:27;16.10;65.90
546;DHT22;259;53.304;9.816;2023-05-19T03:23:53;16.10;65.90
546;DHT22;259;53.304;9.816;2023-05-19T03:26:19;16.00;65.80
546;DHT22;259;53.304;9.816;2023-05-19T03:28:44;16.00;65.90
546;DHT22;259;53.304;9.816;2023-05-19T03:31:10;16.00;65.90
546;DHT22;259;53.304;9.816;2023-05-19T03:33:37;16.00;65.80
546;DHT22;259;53.304;9.816;2023-05-19T03:36:03;16.00;65.90
546;DHT22;259;53.304;9.816;2023-05-19T03:38:29;16.00;65.90
546;DHT22;259;53.304;9.816;2023-05-19T03:40:54;16.00;65.90
546;DHT22;259;53.304;9.816;2023-05-19T03:43:20;16.00;65.90
546;DHT22;259;53.304;9.816;2023-05-19T03:45:46;16.00;65.90
546;DHT22;259;53.304;9.816;2023-05-19T03:48:11;15.90;65.80
546;DHT22;259;53.304;9.816;2023-05-19T03:50:38;15.90;65.70
546;DHT22;259;53.304;9.816;2023-05-19T03:53:03;15.90;65.70
546;DHT22;259;53.304;9.816;2023-05-19T03:55:29;15.90;66.60
546;DHT22;259;53.304;9.816;2023-05-19T03:57:55;15.90;65.80
546;DHT22;259;53.304;9.816;2023-05-19T04:00:21;15.90;65.80
546;DHT22;259;53.304;9.816;2023-05-19T04:02:47;15.90;65.90
546;DHT22;259;53.304;9.816;2023-05-19T04:05:13;15.80;65.70
546;DHT22;259;53.304;9.816;2023-05-19T04:07:39;15.80;65.80
546;DHT22;259;53.304;9.816;2023-05-19T04:10:06;15.80;65.80
546;DHT22;259;53.304;9.816;2023-05-19T04:12:32;15.80;65.80
546;DHT22;259;53.304;9.816;2023-05-19T04:14:58;15.80;65.90
546;DHT22;259;53.304;9.816;2023-05-19T04:17:24;15.80;65.80
546;DHT22;259;53.304;9.816;2023-05-19T04:19:51;15.80;65.80
546;DHT22;259;53.304;9.816;2023-05-19T04:22:18;15.80;65.90
546;DHT22;259;53.304;9.816;2023-05-19T04:24:43;15.70;65.90
546;DHT22;259;53.304;9.816;2023-05-19T04:27:10;15.70;65.80
546;DHT22;259;53.304;9.816;2023-05-19T04:29:37;15.70;65.80
546;DHT22;259;53.304;9.816;2023-05-19T04:32:04;15.70;65.90
546;DHT22;259;53.304;9.816;2023-05-19T04:34:35;15.70;65.80
546;DHT22;259;53.304;9.816;2023-05-19T04:37:05;15.70;65.90
546;DHT22;259;53.304;9.816;2023-05-19T04:39:31;15.70;66.00
546;DHT22;259;53.304;9.816;2023-05-19T04:41:57;15.60;65.90
546;DHT22;259;53.304;9.816;2023-05-19T04:44:24;15.60;65.90
546;DHT22;259;53.304;9.816;2023-05-19T04:46:50;15.60;66.00
546;DHT22;259;53.304;9.816;2023-05-19T04:49:18;15.60;66.00
546;DHT22;259;53.304;9.816;2023-05-19T04:51:44;15.60;66.00
546;DHT22;259;53.304;9.816;2023-05-19T04:54:14;15.60;65.90
546;DHT22;259;53.304;9.816;2023-05-19T04:56:40;15.60;66.00
546;DHT22;259;53.304;9.816;2023-05-19T04:59:08;15.60;66.10
546;DHT22;259;53.304;9.816;2023-05-19T05:01:34;15.50;65.90
546;DHT22;259;53.304;9.816;2023-05-19T05:04:04;15.50;65.80
546;DHT22;259;53.304;9.816;2023-05-19T05:06:31;15.50;65.90
546;DHT22;259;53.304;9.816;2023-05-19T05:08:56;15.50;66.10
546;DHT22;259;53.304;9.816;2023-05-19T05:11:23;15.50;66.10
546;DHT22;259;53.304;9.816;2023-05-19T05:13:49;15.50;66.00
546;DHT22;259;53.304;9.816;2023-05-19T05:16:15;15.50;66.10
546;DHT22;259;53.304;9.816;2023-05-19T05:18:41;15.50;66.20
546;DHT22;259;53.304;9.816;2023-05-19T05:21:07;15.50;66.10
546;DHT22;259;53.304;9.816;2023-05-19T05:23:33;15.40;66.00
546;DHT22;259;53.304;9.816;2023-05-19T05:26:04;15.40;65.90
546;DHT22;259;53.304;9.816;2023-05-19T05:28:34;15.40;66.00
546;DHT22;259;53.304;9.816;2023-05-19T05:30:59;15.40;66.10
546;DHT22;259;53.304;9.816;2023-05-19T05:33:25;15.40;66.10
546;DHT22;259;53.304;9.816;2023-05-19T05:35:51;15.40;66.10
546;DHT22;259;53.304;9.816;2023-05-19T05:38:17;15.40;66.00
546;DHT22;259;53.304;9.816;2023-05-19T05:40:42;15.40;66.10
546;DHT22;259;53.304;9.816;2023-05-19T05:43:08;15.40;66.10
546;DHT22;259;53.304;9.816;2023-05-19T05:45:34;15.40;66.00
546;DHT22;259;53.304;9.816;2023-05-19T05:48:00;15.40;66.10
546;DHT22;259;53.304;9.816;2023-05-19T05:50:26;15.40;66.10
546;DHT22;259;53.304;9.816;2023-05-19T05:52:52;15.40;66.10
546;DHT22;259;53.304;9.816;2023-05-19T05:55:20;15.40;66.00
546;DHT22;259;53.304;9.816;2023-05-19T05:57:48;15.40;66.00
546;DHT22;259;53.304;9.816;2023-05-19T06:00:15;15.30;66.80
546;DHT22;259;53.304;9.816;2023-05-19T06:02:45;15.30;66.00
546;DHT22;259;53.304;9.816;2023-05-19T06:05:11;15.40;66.20
546;DHT22;259;53.304;9.816;2023-05-19T06:07:39;15.30;66.00
546;DHT22;259;53.304;9.816;2023-05-19T06:10:05;15.30;66.00
546;DHT22;259;53.304;9.816;2023-05-19T06:12:32;15.30;66.10
546;DHT22;259;53.304;9.816;2023-05-19T06:14:59;15.30;66.00
546;DHT22;259;53.304;9.816;2023-05-19T06:17:25;15.30;66.20
546;DHT22;259;53.304;9.816;2023-05-19T06:19:50;15.30;66.20
546;DHT22;259;53.304;9.816;2023-05-19T06:22:16;15.30;66.20
546;DHT22;259;53.304;9.816;2023-05-19T06:24:42;15.30;66.20
546;DHT22;259;53.304;9.816;2023-05-19T06:27:07;15.20;66.20
546;DHT22;259;53.304;9.816;2023-05-19T06:29:33;15.20;66.20
546;DHT22;259;53.304;9.816;2023-05-19T06:31:59;15.20;66.20
546;DHT22;259;53.304;9.816;2023-05-19T06:34:24;15.20;66.20
546;DHT22;259;53.304;9.816;2023-05-19T06:36:51;15.20;66.30
546;DHT22;259;53.304;9.816;2023-05-19T06:39:16;15.20;66.40
546;DHT22;259;53.304;9.816;2023-05-19T06:41:42;15.20;66.90
546;DHT22;259;53.304;9.816;2023-05-19T06:44:08;15.20;67.00
546;DHT22;259;53.304;9.816;2023-05-19T06:46:34;15.30;67.50
546;DHT22;259;53.304;9.816;2023-05-19T06:49:00;15.30;67.80
546;DHT22;259;53.304;9.816;2023-05-19T06:51:26;15.30;67.60
546;DHT22;259;53.304;9.816;2023-05-19T06:53:51;15.30;67.00
546;DHT22;259;53.304;9.816;2023-05-19T06:56:17;15.30;67.00
546;DHT22;259;53.304;9.816;2023-05-19T06:58:44;15.20;67.00
546;DHT22;259;53.304;9.816;2023-05-19T07:01:10;15.20;67.20
546;DHT22;259;53.304;9.816;2023-05-19T07:03:35;15.20;67.20
546;DHT22;259;53.304;9.816;2023-05-19T07:06:01;15.20;67.30
546;DHT22;259;53.304;9.816;2023-05-19T07:08:27;15.10;67.30
546;DHT22;259;53.304;9.816;2023-05-19T07:10:53;15.10;67.60
546;DHT22;259;53.304;9.816;2023-05-19T07:13:20;15.10;67.60
546;DHT22;259;53.304;9.816;2023-05-19T07:15:46;15.10;67.60
546;DHT22;259;53.304;9.816;2023-05-19T07:18:13;15.10;67.60
546;DHT22;259;53.304;9.816;2023-05-19T07:20:40;15.10;67.70
546;DHT22;259;53.304;9.816;2023-05-19T07:23:05;15.10;67.60
546;DHT22;259;53.304;9.816;2023-05-19T07:25:31;15.10;67.60
546;DHT22;259;53.304;9.816;2023-05-19T07:27:57;15.10;67.40
546;DHT22;259;53.304;9.816;2023-05-19T07:30:25;15.10;67.50
546;DHT22;259;53.304;9.816;2023-05-19T07:32:51;15.10;67.30
546;DHT22;259;53.304;9.816;2023-05-19T07:35:17;15.10;67.30
546;DHT22;259;53.304;9.816;2023-05-19T07:37:44;15.10;67.30
546;DHT22;259;53.304;9.816;2023-05-19T07:40:10;15.10;67.40
546;DHT22;259;53.304;9.816;2023-05-19T07:42:35;15.20;67.50
546;DHT22;259;53.304;9.816;2023-05-19T07:45:01;15.10;67.30
546;DHT22;259;53.304;9.816;2023-05-19T07:47:29;15.10;67.20
546;DHT22;259;53.304;9.816;2023-05-19T07:49:55;15.10;67.20
546;DHT22;259;53.304;9.816;2023-05-19T07:52:20;15.10;67.20
546;DHT22;259;53.304;9.816;2023-05-19T07:54:46;15.10;67.00
546;DHT22;259;53.304;9.816;2023-05-19T07:57:12;15.10;67.20
546;DHT22;259;53.304;9.816;2023-05-19T07:59:38;15.10;67.40
546;DHT22;259;53.304;9.816;2023-05-19T08:02:04;15.10;67.20
546;DHT22;259;53.304;9.816;2023-05-19T08:04:30;15.10;68.00
546;DHT22;259;53.304;9.816;2023-05-19T08:06:57;15.10;67.20
546;DHT22;259;53.304;9.816;2023-05-19T08:09:22;15.10;67.10
546;DHT22;259;53.304;9.816;2023-05-19T08:11:48;15.20;67.00
546;DHT22;259;53.304;9.816;2023-05-19T08:14:14;15.20;67.00
546;DHT22;259;53.304;9.816;2023-05-19T08:16:40;15.20;66.90
546;DHT22;259;53.304;9.816;2023-05-19T08:19:10;15.20;67.00
546;DHT22;259;53.304;9.816;2023-05-19T08:21:36;15.20;66.90
546;DHT22;259;53.304;9.816;2023-05-19T08:24:02;15.20;66.80
546;DHT22;259;53.304;9.816;2023-05-19T08:26:28;15.20;66.70
546;DHT22;259;53.304;9.816;2023-05-19T08:28:54;15.20;66.60
546;DHT22;259;53.304;9.816;2023-05-19T08:31:20;15.30;66.50
546;DHT22;259;53.304;9.816;2023-05-19T08:33:46;15.30;66.50
546;DHT22;259;53.304;9.816;2023-05-19T08:36:12;15.30;66.50
546;DHT22;259;53.304;9.816;2023-05-19T08:38:38;15.30;66.40
546;DHT22;259;53.304;9.816;2023-05-19T08:41:03;15.30;66.40
546;DHT22;259;53.304;9.816;2023-05-19T08:43:30;15.30;66.50
546;DHT22;259;53.304;9.816;2023-05-19T08:45:57;15.30;66.50
546;DHT22;259;53.304;9.816;2023-05-19T08:48:24;15.30;66.50
546;DHT22;259;53.304;9.816;2023-05-19T08:51:32;15.30;66.40
546;DHT22;259;53.304;9.816;2023-05-19T08:54:11;15.30;66.30
546;DHT22;259;53.304;9.816;2023-05-19T08:56:44;15.40;66.40
546;DHT22;259;53.304;9.816;2023-05-19T08:59:13;15.40;66.20
546;DHT22;259;53.304;9.816;2023-05-19T09:01:44;15.40;66.20
546;DHT22;259;53.304;9.816;2023-05-19T09:04:11;15.40;66.10
546;DHT22;259;53.304;9.816;2023-05-19T09:06:37;15.40;66.10
546;DHT22;259;53.304;9.816;2023-05-19T09:09:05;15.40;66.50
546;DHT22;259;53.304;9.816;2023-05-19T09:11:32;15.40;66.70
546;DHT22;259;53.304;9.816;2023-05-19T09:13:59;15.50;67.00
546;DHT22;259;53.304;9.816;2023-05-19T09:16:25;15.50;68.00
546;DHT22;259;53.304;9.816;2023-05-19T09:18:57;15.50;67.50
546;DHT22;259;53.304;9.816;2023-05-19T09:21:29;15.60;67.50
546;DHT22;259;53.304;9.816;2023-05-19T09:24:05;15.60;68.30
546;DHT22;259;53.304;9.816;2023-05-19T09:26:41;15.70;68.10
546;DHT22;259;53.304;9.816;2023-05-19T09:29:15;15.70;68.40
546;DHT22;259;53.304;9.816;2023-05-19T09:31:49;15.80;68.30
546;DHT22;259;53.304;9.816;2023-05-19T09:34:19;15.80;68.20
546;DHT22;259;53.304;9.816;2023-05-19T09:36:49;15.80;68.20
546;DHT22;259;53.304;9.816;2023-05-19T09:39:18;15.80;67.70
546;DHT22;259;53.304;9.816;2023-05-19T09:41:45;15.80;67.80
546;DHT22;259;53.304;9.816;2023-05-19T09:44:22;15.90;68.20
546;DHT22;259;53.304;9.816;2023-05-19T09:46:49;15.90;68.30
546;DHT22;259;53.304;9.816;2023-05-19T09:49:20;16.00;68.30
546;DHT22;259;53.304;9.816;2023-05-19T09:54:23;16.10;68.40
546;DHT22;259;53.304;9.816;2023-05-19T09:56:59;16.10;68.20
546;DHT22;259;53.304;9.816;2023-05-19T09:59:27;16.20;68.10
546;DHT22;259;53.304;9.816;2023-05-19T10:01:55;16.20;68.60
546;DHT22;259;53.304;9.816;2023-05-19T10:04:22;16.30;70.10
546;DHT22;259;53.304;9.816;2023-05-19T10:06:49;16.40;70.80
546;DHT22;259;53.304;9.816;2023-05-19T10:09:25;16.40;70.70
546;DHT22;259;53.304;9.816;2023-05-19T10:11:53;16.40;71.50
546;DHT22;259;53.304;9.816;2023-05-19T10:14:24;16.50;70.70
546;DHT22;259;53.304;9.816;2023-05-19T10:16:53;16.60;70.70
546;DHT22;259;53.304;9.816;2023-05-19T10:19:24;16.60;70.30
546;DHT22;259;53.304;9.816;2023-05-19T10:21:51;16.60;70.20
546;DHT22;259;53.304;9.816;2023-05-19T10:24:17;16.70;70.40
546;DHT22;259;53.304;9.816;2023-05-19T10:26:47;16.70;70.10
546;DHT22;259;53.304;9.816;2023-05-19T10:29:24;16.80;70.00
546;DHT22;259;53.304;9.816;2023-05-19T10:31:54;16.90;70.00
546;DHT22;259;53.304;9.816;2023-05-19T10:40:32;17.00;69.70
546;DHT22;259;53.304;9.816;2023-05-19T10:44:02;17.00;69.50
546;DHT22;259;53.304;9.816;2023-05-19T10:46:01;17.00;69.20
546;DHT22;259;53.304;9.816;2023-05-19T10:48:32;17.10;69.20
546;DHT22;259;53.304;9.816;2023-05-19T10:51:00;17.20;69.10
546;DHT22;259;53.304;9.816;2023-05-19T10:53:31;17.20;68.90
546;DHT22;259;53.304;9.816;2023-05-19T10:55:58;17.20;69.00
546;DHT22;259;53.304;9.816;2023-05-19T11:01:19;17.30;68.60
546;DHT22;259;53.304;9.816;2023-05-19T11:04:09;17.30;68.80
546;DHT22;259;53.304;9.816;2023-05-19T11:06:37;17.40;69.10
546;DHT22;259;53.304;9.816;2023-05-19T11:09:17;17.40;68.80
546;DHT22;259;53.304;9.816;2023-05-19T11:11:51;17.40;68.80
546;DHT22;259;53.304;9.816;2023-05-19T11:14:20;17.40;68.70
546;DHT22;259;53.304;9.816;2023-05-19T11:16:51;17.40;68.40
546;DHT22;259;53.304;9.816;2023-05-19T11:19:28;17.40;68.30
546;DHT22;259;53.304;9.816;2023-05-19T11:21:55;17.30;68.20
546;DHT22;259;53.304;9.816;2023-05-19T11:24:48;17.30;68.20
546;DHT22;259;53.304;9.816;2023-05-19T11:27:31;17.30;68.70
546;DHT22;259;53.304;9.816;2023-05-19T11:32:27;17.30;67.90
546;DHT22;259;53.304;9.816;2023-05-19T11:34:55;17.30;67.80
546;DHT22;259;53.304;9.816;2023-05-19T11:37:21;17.40;67.60
546;DHT22;259;53.304;9.816;2023-05-19T11:39:47;17.40;67.50
546;DHT22;259;53.304;9.816;2023-05-19T11:42:13;17.40;67.60
546;DHT22;259;53.304;9.816;2023-05-19T11:44:39;17.40;67.20
546;DHT22;259;53.304;9.816;2023-05-19T11:47:06;17.40;67.00
546;DHT22;259;53.304;9.816;2023-05-19T11:49:32;17.40;67.10
546;DHT22;259;53.304;9.816;2023-05-19T11:52:01;17.40;67.00
546;DHT22;259;53.304;9.816;2023-05-19T11:54:32;17.40;66.90
546;DHT22;259;53.304;9.816;2023-05-19T11:57:02;17.40;66.80
546;DHT22;259;53.304;9.816;2023-05-19T11:59:32;17.50;66.80
546;DHT22;259;53.304;9.816;2023-05-19T12:02:14;17.50;67.00
546;DHT22;259;53.304;9.816;2023-05-19T12:04:43;17.50;66.90
546;DHT22;259;53.304;9.816;2023-05-19T12:07:12;17.50;66.80
546;DHT22;259;53.304;9.816;2023-05-19T12:09:43;17.60;66.90
546;DHT22;259;53.304;9.816;2023-05-19T12:12:15;17.60;67.00
546;DHT22;259;53.304;9.816;2023-05-19T12:14:43;17.60;66.80
546;DHT22;259;53.304;9.816;2023-05-19T12:17:15;17.60;66.50
546;DHT22;259;53.304;9.816;2023-05-19T12:19:44;17.60;66.40
546;DHT22;259;53.304;9.816;2023-05-19T12:22:11;17.60;66.00
546;DHT22;259;53.304;9.816;2023-05-19T12:24:38;17.70;66.00
546;DHT22;259;53.304;9.816;2023-05-19T12:29:38;17.70;65.90
546;DHT22;259;53.304;9.816;2023-05-19T12:32:06;17.70;65.90
546;DHT22;259;53.304;9.816;2023-05-19T12:34:39;17.80;65.90
546;DHT22;259;53.304;9.816;2023-05-19T12:37:05;17.80;65.80
546;DHT22;259;53.304;9.816;2023-05-19T12:39:31;17.80;65.70
546;DHT22;259;53.304;9.816;2023-05-19T12:42:07;17.90;66.10
546;DHT22;259;53.304;9.816;2023-05-19T12:44:37;17.90;66.20
546;DHT22;259;53.304;9.816;2023-05-19T12:47:08;17.90;66.40
546;DHT22;259;53.304;9.816;2023-05-19T12:49:33;17.90;66.50
546;DHT22;259;53.304;9.816;2023-05-19T12:52:02;17.90;66.60
546;DHT22;259;53.304;9.816;2023-05-19T12:54:34;18.00;66.80
546;DHT22;259;53.304;9.816;2023-05-19T12:57:00;18.00;66.70
546;DHT22;259;53.304;9.816;2023-05-19T12:59:25;18.10;66.90
546;DHT22;259;53.304;9.816;2023-05-19T13:01:57;18.20;67.10
546;DHT22;259;53.304;9.816;2023-05-19T13:04:24;18.20;67.80
546;DHT22;259;53.304;9.816;2023-05-19T13:06:51;18.30;67.70
546;DHT22;259;53.304;9.816;2023-05-19T13:09:18;18.40;67.00
546;DHT22;259;53.304;9.816;2023-05-19T13:11:45;18.40;66.90
546;DHT22;259;53.304;9.816;2023-05-19T13:14:19;18.40;66.90
546;DHT22;259;53.304;9.816;2023-05-19T13:16:45;18.50;67.00
546;DHT22;259;53.304;9.816;2023-05-19T13:19:16;18.50;67.50
546;DHT22;259;53.304;9.816;2023-05-19T13:21:42;18.50;67.00
546;DHT22;259;53.304;9.816;2023-05-19T13:24:08;18.50;66.70
546;DHT22;259;53.304;9.816;2023-05-19T13:26:34;18.40;66.30
546;DHT22;259;53.304;9.816;2023-05-19T13:29:00;18.40;66.40
546;DHT22;259;53.304;9.816;2023-05-19T13:31:26;18.40;66.50
546;DHT22;259;53.304;9.816;2023-05-19T13:33:52;18.40;66.50
546;DHT22;259;53.304;9.816;2023-05-19T13:36:18;18.40;66.60
546;DHT22;259;53.304;9.816;2023-05-19T13:38:43;18.40;66.90
546;DHT22;259;53.304;9.816;2023-05-19T13:41:09;18.30;66.70
546;DHT22;259;53.304;9.816;2023-05-19T13:43:35;18.30;66.90
546;DHT22;259;53.304;9.816;2023-05-19T13:46:00;18.30;67.00
546;DHT22;259;53.304;9.816;2023-05-19T13:48:26;18.30;67.00
546;DHT22;259;53.304;9.816;2023-05-19T13:50:52;18.30;67.10
546;DHT22;259;53.304;9.816;2023-05-19T13:53:19;18.30;67.10
546;DHT22;259;53.304;9.816;2023-05-19T13:55:45;18.30;67.30
546;DHT22;259;53.304;9.816;2023-05-19T13:58:12;18.30;67.30
546;DHT22;259;53.304;9.816;2023-05-19T14:00:39;18.30;67.30
546;DHT22;259;53.304;9.816;2023-05-19T14:03:05;18.30;67.10
546;DHT22;259;53.304;9.816;2023-05-19T14:05:31;18.30;66.90
546;DHT22;259;53.304;9.816;2023-05-19T14:07:57;18.30;67.00
546;DHT22;259;53.304;9.816;2023-05-19T14:10:25;18.40;67.30
546;DHT22;259;53.304;9.816;2023-05-19T14:12:51;18.40;67.40
546;DHT22;259;53.304;9.816;2023-05-19T14:15:24;18.40;67.70
546;DHT22;259;53.304;9.816;2023-05-19T14:17:50;18.40;67.40
546;DHT22;259;53.304;9.816;2023-05-19T14:20:17;18.40;67.70
546;DHT22;259;53.304;9.816;2023-05-19T14:22:43;18.40;67.40
546;DHT22;259;53.304;9.816;2023-05-19T14:25:09;18.40;67.50
546;DHT22;259;53.304;9.816;2023-05-19T14:27:35;18.40;67.60
546;DHT22;259;53.304;9.816;2023-05-19T14:30:00;18.40;67.60
546;DHT22;259;53.304;9.816;2023-05-19T14:32:26;18.40;67.50
546;DHT22;259;53.304;9.816;2023-05-19T14:34:52;18.40;67.70
546;DHT22;259;53.304;9.816;2023-05-19T14:37:18;18.40;67.40
546;DHT22;259;53.304;9.816;2023-05-19T14:39:44;18.50;68.00
546;DHT22;259;53.304;9.816;2023-05-19T14:42:10;18.50;67.30
546;DHT22;259;53.304;9.816;2023-05-19T14:44:36;18.50;67.30
546;DHT22;259;53.304;9.816;2023-05-19T14:47:02;18.50;67.20
546;DHT22;259;53.304;9.816;2023-05-19T14:49:28;18.50;67.10
546;DHT22;259;53.304;9.816;2023-05-19T14:51:54;18.50;67.30
546;DHT22;259;53.304;9.816;2023-05-19T14:54:20;18.40;67.30
546;DHT22;259;53.304;9.816;2023-05-19T14:56:46;18.40;67.40
546;DHT22;259;53.304;9.816;2023-05-19T14:59:12;18.40;67.40
546;DHT22;259;53.304;9.816;2023-05-19T15:01:37;18.40;67.30
546;DHT22;259;53.304;9.816;2023-05-19T15:04:03;18.40;67.30
546;DHT22;259;53.304;9.816;2023-05-19T15:06:29;18.40;67.30
546;DHT22;259;53.304;9.816;2023-05-19T15:08:55;18.40;67.30
546;DHT22;259;53.304;9.816;2023-05-19T15:11:20;18.40;67.30
546;DHT22;259;53.304;9.816;2023-05-19T15:13:46;18.40;67.40
546;DHT22;259;53.304;9.816;2023-05-19T15:16:12;18.40;67.60
546;DHT22;259;53.304;9.816;2023-05-19T15:18:38;18.40;67.50
546;DHT22;259;53.304;9.816;2023-05-19T15:21:03;18.40;67.50
546;DHT22;259;53.304;9.816;2023-05-19T15:23:29;18.40;67.40
546;DHT22;259;53.304;9.816;2023-05-19T15:25:55;18.40;67.40
546;DHT22;259;53.304;9.816;2023-05-19T15:28:21;18.40;67.50
546;DHT22;259;53.304;9.816;2023-05-19T15:30:46;18.40;67.50
546;DHT22;259;53.304;9.816;2023-05-19T15:33:12;18.40;67.40
546;DHT22;259;53.304;9.816;2023-05-19T15:35:38;18.40;67.80
546;DHT22;259;53.304;9.816;2023-05-19T15:38:03;18.40;67.90
546;DHT22;259;53.304;9.816;2023-05-19T15:40:34;18.40;67.70
546;DHT22;259;53.304;9.816;2023-05-19T15:43:00;18.40;67.60
546;DHT22;259;53.304;9.816;2023-05-19T15:45:25;18.40;67.60
546;DHT22;259;53.304;9.816;2023-05-19T15:47:51;18.40;67.60
546;DHT22;259;53.304;9.816;2023-05-19T15:50:17;18.40;67.70
546;DHT22;259;53.304;9.816;2023-05-19T15:52:44;18.40;67.70
546;DHT22;259;53.304;9.816;2023-05-19T15:55:09;18.40;67.60
546;DHT22;259;53.304;9.816;2023-05-19T15:57:35;18.40;67.60
546;DHT22;259;53.304;9.816;2023-05-19T16:00:01;18.30;67.40
546;DHT22;259;53.304;9.816;2023-05-19T16:02:26;18.30;67.50
546;DHT22;259;53.304;9.816;2023-05-19T16:04:52;18.30;67.60
546;DHT22;259;53.304;9.816;2023-05-19T16:07:18;18.30;67.60
546;DHT22;259;53.304;9.816;2023-05-19T16:09:43;18.30;67.50
546;DHT22;259;53.304;9.816;2023-05-19T16:12:09;18.30;67.60
546;DHT22;259;53.304;9.816;2023-05-19T16:14:35;18.30;67.60
546;DHT22;259;53.304;9.816;2023-05-19T16:17:02;18.40;67.60
546;DHT22;259;53.304;9.816;2023-05-19T16:19:29;18.40;67.60
546;DHT22;259;53.304;9.816;2023-05-19T16:21:54;18.40;67.50
546;DHT22;259;53.304;9.816;2023-05-19T16:24:20;18.40;67.50
546;DHT22;259;53.304;9.816;2023-05-19T16:26:46;18.40;67.50
546;DHT22;259;53.304;9.816;2023-05-19T16:29:12;18.40;67.50
546;DHT22;259;53.304;9.816;2023-05-19T16:31:38;18.40;67.50
546;DHT22;259;53.304;9.816;2023-05-19T16:34:04;18.40;67.50
546;DHT22;259;53.304;9.816;2023-05-19T16:36:29;18.40;67.40
546;DHT22;259;53.304;9.816;2023-05-19T16:38:56;18.40;67.60
546;DHT22;259;53.304;9.816;2023-05-19T16:41:21;18.40;67.50
546;DHT22;259;53.304;9.816;2023-05-19T16:43:47;18.40;67.50
546;DHT22;259;53.304;9.816;2023-05-19T16:46:13;18.40;67.60
546;DHT22;259;53.304;9.816;2023-05-19T16:48:38;18.40;67.80
546;DHT22;259;53.304;9.816;2023-05-19T16:51:04;18.40;67.80
546;DHT22;259;53.304;9.816;2023-05-19T16:53:30;18.40;67.90
546;DHT22;259;53.304;9.816;2023-05-19T16:55:56;18.40;67.90
546;DHT22;259;53.304;9.816;2023-05-19T16:58:24;18.40;67.80
546;DHT22;259;53.304;9.816;2023-05-19T17:00:50;18.40;67.80
546;DHT22;259;53.304;9.816;2023-05-19T17:03:17;18.40;67.80
546;DHT22;259;53.304;9.816;2023-05-19T17:05:42;18.40;67.70